sensor_id;sensor_type;location;lat;lon;timestamp;temperature;humidity
2967;DHT22;1493;51.496;7.210;2023-05-10T00:01:48;14.50;99.90
2967;DHT22;1493;51.496;7.210;2023-05-10T00:04:16;14.30;99.90
2967;DHT22;1493;51.496;7.210;2023-05-10T00:06:42;14.30;99.90
2967;DHT22;1493;51.496;7.210;2023-05-10T00:09:09;14.40;99.90
2967;DHT22;1493;51.496;7.210;2023-05-10T00:11:36;14.40;99.90
2967;DHT22;1493;51.496;7.210;2023-05-10T00:14:03;14.40;99.90
2967;DHT22;1493;51.496;7.210;2023-05-10T00:16:31;14.40;99.90
2967;DHT22;1493;51.496;7.210;2023-05-10T00:18:58;14.40;99.90
2967;DHT22;1493;51.496;7.210;2023-05-10T00:21:25;14.40;99.90
2967;DHT22;1493;51.496;7.210;2023-05-10T00:23:53;14.30;99.90
2967;DHT22;1493;51.496;7.210;2023-05-10T00:26:20;14.30;99.90
2967;DHT22;1493;51.496;7.210;2023-05-10T00:28:47;14.30;99.90
2967;DHT22;1493;51.496;7.210;2023-05-10T00:31:14;14.30;99.90
2967;DHT22;1493;51.496;7.210;2023-05-10T00:33:42;14.20;99.90
2967;DHT22;1493;51.496;7.210;2023-05-10T00:36:09;14.20;99.90
2967;DHT22;1493;51.496;7.210;2023-05-10T00:38:36;14.20;99.90
2967;DHT22;1493;51.496;7.210;2023-05-10T00:41:03;14.20;99.90
2967;DHT22;1493;51.496;7.210;2023-05-10T00:43:30;14.20;99.90
2967;DHT22;1493;51.496;7.210;2023-05-10T00:45:57;14.20;99.90
2967;DHT22;1493;51.496;7.210;2023-05-10T00:48:24;14.30;99.90
2967;DHT22;1493;51.496;7.210;2023-05-10T00:50:52;14.30;99.90
2967;DHT22;1493;51.496;7.210;2023-05-10T00:53:19;14.20;99.90
2967;DHT22;1493;51.496;7.210;2023-05-10T00:55:46;14.30;99.90
2967;DHT22;1493;51.496;7.210;2023-05-10T00:58:13;14.30;99.90
2967;DHT22;1493;51.496;7.210;2023-05-10T01:00:42;14.30;99.90
2967;DHT22;1493;51.496;7.210;2023-05-10T01:03:10;14.30;99.90
2967;DHT22;1493;51.496;7.210;2023-05-10T01:05:37;14.30;99.90
2967;DHT22;1493;51.496;7.210;2023-05-10T01:08:05;14.30;99.90
2967;DHT22;1493;51.496;7.210;2023-05-10T01:10:34;14.30;99.90
2967;DHT22;1493;51.496;7.210;2023-05-10T01:13:01;14.30;99.90
2967;DHT22;1493;51.496;7.210;2023-05-10T01:15:28;14.20;99.90
2967;DHT22;1493;51.496;7.210;2023-05-10T01:17:56;14.30;99.90
2967;DHT22;1493;51.496;7.210;2023-05-10T01:20:23;14.30;99.90
2967;DHT22;1493;51.496;7.210;2023-05-10T01:23:15;14.30;99.90
2967;DHT22;1493;51.496;7.210;2023-05-10T01:26:24;14.30;99.90
2967;DHT22;1493;51.496;7.210;2023-05-10T01:32:15;14.30;99.90
2967;DHT22;1493;51.496;7.210;2023-05-10T01:34:48;14.30;99.90
2967;DHT22;1493;51.496;7.210;2023-05-10T01:37:21;14.20;99.90
2967;DHT22;1493;51.496;7.210;2023-05-10T01:39:55;14.20;99.90
2967;DHT22;1493;51.496;7.210;2023-05-10T01:42:25;14.20;99.90
2967;DHT22;1493;51.496;7.210;2023-05-10T01:44:56;14.20;99.90
2967;DHT22;1493;51.496;7.210;2023-05-10T01:47:29;14.20;99.90
2967;DHT22;1493;51.496;7.210;2023-05-10T01:50:02;14.20;99.90
2967;DHT22;1493;51.496;7.210;2023-05-10T01:52:33;14.10;99.90
2967;DHT22;1493;51.496;7.210;2023-05-10T01:55:06;14.10;99.90
2967;DHT22;1493;51.496;7.210;2023-05-10T01:57:35;14.10;99.90
2967;DHT22;1493;51.496;7.210;2023-05-10T02:00:08;14.10;99.90
2967;DHT22;1493;51.496;7.210;2023-05-10T02:02:39;14.10;99.90
2967;DHT22;1493;51.496;7.210;2023-05-10T02:05:08;14.10;99.90
2967;DHT22;1493;51.496;7.210;2023-05-10T02:07:36;14.10;99.90
2967;DHT22;1493;51.496;7.210;2023-05-10T02:10:04;14.10;99.90
2967;DHT22;1493;51.496;7.210;2023-05-10T02:12:35;14.10;99.90
2967;DHT22;1493;51.496;7.210;2023-05-10T02:15:05;14.10;99.90
2967;DHT22;1493;51.496;7.210;2023-05-10T02:17:34;14.10;99.90
2967;DHT22;1493;51.496;7.210;2023-05-10T02:20:05;14.00;99.90
2967;DHT22;1493;51.496;7.210;2023-05-10T02:22:34;14.00;99.90
2967;DHT22;1493;51.496;7.210;2023-05-10T02:25:03;14.00;99.90
2967;DHT22;1493;51.496;7.210;2023-05-10T02:27:31;13.90;99.90
2967;DHT22;1493;51.496;7.210;2023-05-10T02:29:58;13.80;99.90
2967;DHT22;1493;51.496;7.210;2023-05-10T02:32:27;13.80;99.90
2967;DHT22;1493;51.496;7.210;2023-05-10T02:34:56;13.80;99.90
2967;DHT22;1493;51.496;7.210;2023-05-10T02:37:25;13.80;99.90
2967;DHT22;1493;51.496;7.210;2023-05-10T02:39:55;13.80;99.90
2967;DHT22;1493;51.496;7.210;2023-05-10T02:42:25;13.80;99.90
2967;DHT22;1493;51.496;7.210;2023-05-10T02:44:54;13.80;99.90
2967;DHT22;1493;51.496;7.210;2023-05-10T02:47:23;13.70;99.90
2967;DHT22;1493;51.496;7.210;2023-05-10T02:49:50;13.80;99.90
2967;DHT22;1493;51.496;7.210;2023-05-10T02:52:28;13.70;99.90
2967;DHT22;1493;51.496;7.210;2023-05-10T02:54:59;13.70;99.90
2967;DHT22;1493;51.496;7.210;2023-05-10T02:57:30;13.70;99.90
2967;DHT22;1493;51.496;7.210;2023-05-10T02:59:58;13.70;99.90
2967;DHT22;1493;51.496;7.210;2023-05-10T03:02:25;13.60;99.90
2967;DHT22;1493;51.496;7.210;2023-05-10T03:04:52;13.60;99.90
2967;DHT22;1493;51.496;7.210;2023-05-10T03:07:19;13.60;99.90
2967;DHT22;1493;51.496;7.210;2023-05-10T03:09:48;13.60;99.90
2967;DHT22;1493;51.496;7.210;2023-05-10T03:12:20;13.60;99.90
2967;DHT22;1493;51.496;7.210;2023-05-10T03:14:57;13.60;99.90
2967;DHT22;1493;51.496;7.210;2023-05-10T03:17:30;13.60;99.90
2967;DHT22;1493;51.496;7.210;2023-05-10T03:20:04;13.60;99.90
2967;DHT22;1493;51.496;7.210;2023-05-10T03:22:37;13.70;99.90
2967;DHT22;1493;51.496;7.210;2023-05-10T03:25:06;13.70;99.90
2967;DHT22;1493;51.496;7.210;2023-05-10T03:27:36;13.70;99.90
2967;DHT22;1493;51.496;7.210;2023-05-10T03:30:03;13.70;99.90
2967;DHT22;1493;51.496;7.210;2023-05-10T03:32:31;13.70;99.90
2967;DHT22;1493;51.496;7.210;2023-05-10T03:35:00;13.70;99.90
2967;DHT22;1493;51.496;7.210;2023-05-10T03:37:27;13.70;99.90
2967;DHT22;1493;51.496;7.210;2023-05-10T03:39:54;13.80;99.90
2967;DHT22;1493;51.496;7.210;2023-05-10T03:42:22;13.80;99.90
2967;DHT22;1493;51.496;7.210;2023-05-10T03:44:49;13.80;99.90
2967;DHT22;1493;51.496;7.210;2023-05-10T03:47:16;13.80;99.90
2967;DHT22;1493;51.496;7.210;2023-05-10T03:49:43;13.80;99.90
2967;DHT22;1493;51.496;7.210;2023-05-10T03:52:09;13.80;99.90
2967;DHT22;1493;51.496;7.210;2023-05-10T03:54:36;13.80;99.90
2967;DHT22;1493;51.496;7.210;2023-05-10T03:57:03;13.80;99.90
2967;DHT22;1493;51.496;7.210;2023-05-10T03:59:31;13.90;99.90
2967;DHT22;1493;51.496;7.210;2023-05-10T04:01:58;13.90;99.90
2967;DHT22;1493;51.496;7.210;2023-05-10T04:04:25;13.90;99.90
2967;DHT22;1493;51.496;7.210;2023-05-10T04:06:51;13.90;99.90
2967;DHT22;1493;51.496;7.210;2023-05-10T04:09:18;13.90;99.90
2967;DHT22;1493;51.496;7.210;2023-05-10T04:11:45;13.90;99.90
2967;DHT22;1493;51.496;7.210;2023-05-10T04:14:12;13.90;99.90
2967;DHT22;1493;51.496;7.210;2023-05-10T04:16:40;13.90;99.90
2967;DHT22;1493;51.496;7.210;2023-05-10T04:19:07;13.90;99.90
2967;DHT22;1493;51.496;7.210;2023-05-10T04:21:34;13.90;99.90
2967;DHT22;1493;51.496;7.210;2023-05-10T04:24:00;13.80;99.90
2967;DHT22;1493;51.496;7.210;2023-05-10T04:26:27;13.80;99.90
2967;DHT22;1493;51.496;7.210;2023-05-10T04:28:54;13.90;99.90
2967;DHT22;1493;51.496;7.210;2023-05-10T04:31:21;13.90;99.90
2967;DHT22;1493;51.496;7.210;2023-05-10T04:33:49;13.90;99.90
2967;DHT22;1493;51.496;7.210;2023-05-10T04:36:16;13.90;99.90
2967;DHT22;1493;51.496;7.210;2023-05-10T04:38:43;13.90;99.90
2967;DHT22;1493;51.496;7.210;2023-05-10T04:41:10;13.90;99.90
2967;DHT22;1493;51.496;7.210;2023-05-10T04:43:38;13.90;99.90
2967;DHT22;1493;51.496;7.210;2023-05-10T04:46:05;13.90;99.90
2967;DHT22;1493;51.496;7.210;2023-05-10T04:48:32;13.90;99.90
2967;DHT22;1493;51.496;7.210;2023-05-10T04:51:00;14.00;99.90
2967;DHT22;1493;51.496;7.210;2023-05-10T04:53:29;13.90;99.90
2967;DHT22;1493;51.496;7.210;2023-05-10T04:55:56;13.90;99.90
2967;DHT22;1493;51.496;7.210;2023-05-10T04:58:22;14.00;99.90
2967;DHT22;1493;51.496;7.210;2023-05-10T05:00:49;14.00;99.90
2967;DHT22;1493;51.496;7.210;2023-05-10T05:03:16;14.00;99.90
2967;DHT22;1493;51.496;7.210;2023-05-10T05:05:43;14.10;99.90
2967;DHT22;1493;51.496;7.210;2023-05-10T05:08:11;14.10;99.90
2967;DHT22;1493;51.496;7.210;2023-05-10T05:10:38;14.10;99.90
2967;DHT22;1493;51.496;7.210;2023-05-10T05:13:05;14.20;99.90
2967;DHT22;1493;51.496;7.210;2023-05-10T05:15:32;14.10;99.90
2967;DHT22;1493;51.496;7.210;2023-05-10T05:17:59;14.20;99.90
2967;DHT22;1493;51.496;7.210;2023-05-10T05:20:26;14.20;99.90
2967;DHT22;1493;51.496;7.210;2023-05-10T05:22:53;14.20;99.90
2967;DHT22;1493;51.496;7.210;2023-05-10T05:25:21;14.30;99.90
2967;DHT22;1493;51.496;7.210;2023-05-10T05:27:48;14.30;99.90
2967;DHT22;1493;51.496;7.210;2023-05-10T05:30:15;14.40;99.90
2967;DHT22;1493;51.496;7.210;2023-05-10T05:32:41;14.40;99.90
2967;DHT22;1493;51.496;7.210;2023-05-10T05:35:08;14.40;99.90
2967;DHT22;1493;51.496;7.210;2023-05-10T05:37:35;14.50;99.90
2967;DHT22;1493;51.496;7.210;2023-05-10T05:40:02;14.50;99.90
2967;DHT22;1493;51.496;7.210;2023-05-10T05:42:31;14.60;99.90
2967;DHT22;1493;51.496;7.210;2023-05-10T05:44:58;14.70;99.90
2967;DHT22;1493;51.496;7.210;2023-05-10T05:47:25;14.80;99.90
2967;DHT22;1493;51.496;7.210;2023-05-10T05:49:52;15.00;99.90
2967;DHT22;1493;51.496;7.210;2023-05-10T05:52:18;15.10;99.90
2967;DHT22;1493;51.496;7.210;2023-05-10T05:54:46;15.20;99.90
2967;DHT22;1493;51.496;7.210;2023-05-10T05:57:13;15.10;99.90
2967;DHT22;1493;51.496;7.210;2023-05-10T05:59:41;15.00;99.90
2967;DHT22;1493;51.496;7.210;2023-05-10T06:02:09;15.10;99.90
2967;DHT22;1493;51.496;7.210;2023-05-10T06:04:36;15.00;99.90
2967;DHT22;1493;51.496;7.210;2023-05-10T06:07:03;15.20;99.90
2967;DHT22;1493;51.496;7.210;2023-05-10T06:09:29;15.20;99.90
2967;DHT22;1493;51.496;7.210;2023-05-10T06:11:56;15.20;99.90
2967;DHT22;1493;51.496;7.210;2023-05-10T06:14:23;15.20;99.90
2967;DHT22;1493;51.496;7.210;2023-05-10T06:16:51;15.20;99.90
2967;DHT22;1493;51.496;7.210;2023-05-10T06:19:18;15.20;99.90
2967;DHT22;1493;51.496;7.210;2023-05-10T06:21:45;15.20;99.90
2967;DHT22;1493;51.496;7.210;2023-05-10T06:24:12;15.10;99.90
2967;DHT22;1493;51.496;7.210;2023-05-10T06:26:38;15.20;99.90
2967;DHT22;1493;51.496;7.210;2023-05-10T06:29:05;15.30;99.90
2967;DHT22;1493;51.496;7.210;2023-05-10T06:31:32;15.40;99.90
2967;DHT22;1493;51.496;7.210;2023-05-10T06:34:00;15.50;99.90
2967;DHT22;1493;51.496;7.210;2023-05-10T06:36:27;15.70;99.90
2967;DHT22;1493;51.496;7.210;2023-05-10T06:38:55;15.90;99.90
2967;DHT22;1493;51.496;7.210;2023-05-10T06:41:22;16.00;99.90
2967;DHT22;1493;51.496;7.210;2023-05-10T06:43:49;16.30;99.90
2967;DHT22;1493;51.496;7.210;2023-05-10T06:46:16;16.40;99.90
2967;DHT22;1493;51.496;7.210;2023-05-10T06:48:43;16.30;99.90
2967;DHT22;1493;51.496;7.210;2023-05-10T06:51:11;16.30;99.90
2967;DHT22;1493;51.496;7.210;2023-05-10T06:53:38;16.40;99.90
2967;DHT22;1493;51.496;7.210;2023-05-10T06:56:05;16.40;99.90
2967;DHT22;1493;51.496;7.210;2023-05-10T06:58:32;16.40;99.90
2967;DHT22;1493;51.496;7.210;2023-05-10T07:01:02;16.60;99.90
2967;DHT22;1493;51.496;7.210;2023-05-10T07:03:29;16.80;99.90
2967;DHT22;1493;51.496;7.210;2023-05-10T07:06:00;17.10;99.90
2967;DHT22;1493;51.496;7.210;2023-05-10T07:08:30;17.30;99.90
2967;DHT22;1493;51.496;7.210;2023-05-10T07:11:00;17.30;99.90
2967;DHT22;1493;51.496;7.210;2023-05-10T07:13:27;17.20;99.90
2967;DHT22;1493;51.496;7.210;2023-05-10T07:15:53;17.40;99.90
2967;DHT22;1493;51.496;7.210;2023-05-10T07:18:20;17.40;99.90
2967;DHT22;1493;51.496;7.210;2023-05-10T07:20:47;17.20;99.90
2967;DHT22;1493;51.496;7.210;2023-05-10T07:23:14;17.20;99.90
2967;DHT22;1493;51.496;7.210;2023-05-10T07:25:44;17.40;99.90
2967;DHT22;1493;51.496;7.210;2023-05-10T07:28:12;17.50;99.90
2967;DHT22;1493;51.496;7.210;2023-05-10T07:30:38;17.60;99.90
2967;DHT22;1493;51.496;7.210;2023-05-10T07:33:05;17.50;99.90
2967;DHT22;1493;51.496;7.210;2023-05-10T07:35:32;17.40;99.90
2967;DHT22;1493;51.496;7.210;2023-05-10T07:37:59;17.60;99.90
2967;DHT22;1493;51.496;7.210;2023-05-10T07:40:26;17.80;99.90
2967;DHT22;1493;51.496;7.210;2023-05-10T07:42:54;18.10;99.90
2967;DHT22;1493;51.496;7.210;2023-05-10T07:45:21;18.20;99.90
2967;DHT22;1493;51.496;7.210;2023-05-10T07:47:48;18.40;97.10
2967;DHT22;1493;51.496;7.210;2023-05-10T07:50:15;18.70;1.00
2967;DHT22;1493;51.496;7.210;2023-05-10T07:52:42;18.80;1.00
2967;DHT22;1493;51.496;7.210;2023-05-10T07:55:09;18.80;1.00
2967;DHT22;1493;51.496;7.210;2023-05-10T07:57:36;19.10;1.00
2967;DHT22;1493;51.496;7.210;2023-05-10T08:00:05;19.30;1.00
2967;DHT22;1493;51.496;7.210;2023-05-10T08:02:34;19.10;1.00
2967;DHT22;1493;51.496;7.210;2023-05-10T08:05:01;19.00;1.00
2967;DHT22;1493;51.496;7.210;2023-05-10T08:07:27;18.70;20.60
2967;DHT22;1493;51.496;7.210;2023-05-10T08:09:54;18.50;1.00
2967;DHT22;1493;51.496;7.210;2023-05-10T08:12:21;18.10;1.00
2967;DHT22;1493;51.496;7.210;2023-05-10T08:14:48;17.60;11.40
2967;DHT22;1493;51.496;7.210;2023-05-10T08:17:16;17.50;64.20
2967;DHT22;1493;51.496;7.210;2023-05-10T08:19:43;17.40;99.90
2967;DHT22;1493;51.496;7.210;2023-05-10T08:22:10;17.30;99.90
2967;DHT22;1493;51.496;7.210;2023-05-10T08:24:36;17.30;99.90
2967;DHT22;1493;51.496;7.210;2023-05-10T08:27:04;17.20;99.90
2967;DHT22;1493;51.496;7.210;2023-05-10T08:29:31;17.00;99.90
2967;DHT22;1493;51.496;7.210;2023-05-10T08:31:58;17.00;99.90
2967;DHT22;1493;51.496;7.210;2023-05-10T08:34:27;17.10;99.90
2967;DHT22;1493;51.496;7.210;2023-05-10T08:36:54;17.40;99.90
2967;DHT22;1493;51.496;7.210;2023-05-10T08:39:21;17.70;99.90
2967;DHT22;1493;51.496;7.210;2023-05-10T08:41:51;18.10;99.90
2967;DHT22;1493;51.496;7.210;2023-05-10T08:44:19;18.00;96.20
2967;DHT22;1493;51.496;7.210;2023-05-10T08:46:47;17.90;63.60
2967;DHT22;1493;51.496;7.210;2023-05-10T08:49:17;18.10;34.60
2967;DHT22;1493;51.496;7.210;2023-05-10T08:51:51;18.10;79.40
2967;DHT22;1493;51.496;7.210;2023-05-10T08:54:21;18.10;30.60
2967;DHT22;1493;51.496;7.210;2023-05-10T08:56:48;18.20;23.50
2967;DHT22;1493;51.496;7.210;2023-05-10T08:59:15;18.20;11.10
2967;DHT22;1493;51.496;7.210;2023-05-10T09:01:43;18.10;18.90
2967;DHT22;1493;51.496;7.210;2023-05-10T09:04:11;18.10;55.70
2967;DHT22;1493;51.496;7.210;2023-05-10T09:06:38;18.10;37.60
2967;DHT22;1493;51.496;7.210;2023-05-10T09:09:07;17.90;5.20
2967;DHT22;1493;51.496;7.210;2023-05-10T09:11:34;17.80;59.50
2967;DHT22;1493;51.496;7.210;2023-05-10T09:14:01;17.90;52.00
2967;DHT22;1493;51.496;7.210;2023-05-10T09:16:28;17.90;54.70
2967;DHT22;1493;51.496;7.210;2023-05-10T09:18:56;18.10;13.30
2967;DHT22;1493;51.496;7.210;2023-05-10T09:21:22;18.10;1.00
2967;DHT22;1493;51.496;7.210;2023-05-10T09:23:49;18.30;1.00
2967;DHT22;1493;51.496;7.210;2023-05-10T09:26:22;18.30;1.00
2967;DHT22;1493;51.496;7.210;2023-05-10T09:28:53;18.50;23.60
2967;DHT22;1493;51.496;7.210;2023-05-10T09:31:20;18.60;1.00
2967;DHT22;1493;51.496;7.210;2023-05-10T09:33:47;18.80;1.00
2967;DHT22;1493;51.496;7.210;2023-05-10T09:36:15;18.80;1.00
2967;DHT22;1493;51.496;7.210;2023-05-10T09:38:45;19.00;1.00
2967;DHT22;1493;51.496;7.210;2023-05-10T09:41:18;19.60;1.00
2967;DHT22;1493;51.496;7.210;2023-05-10T09:43:45;19.90;99.90
2967;DHT22;1493;51.496;7.210;2023-05-10T09:46:12;20.30;99.90
2967;DHT22;1493;51.496;7.210;2023-05-10T09:48:42;22.50;99.90
2967;DHT22;1493;51.496;7.210;2023-05-10T09:51:09;24.70;99.90
2967;DHT22;1493;51.496;7.210;2023-05-10T09:53:36;26.10;1.00
2967;DHT22;1493;51.496;7.210;2023-05-10T09:56:03;27.20;1.00
2967;DHT22;1493;51.496;7.210;2023-05-10T09:58:35;27.60;1.00
2967;DHT22;1493;51.496;7.210;2023-05-10T10:01:03;27.60;1.00
2967;DHT22;1493;51.496;7.210;2023-05-10T10:03:30;28.00;1.00
2967;DHT22;1493;51.496;7.210;2023-05-10T10:05:57;29.90;1.00
2967;DHT22;1493;51.496;7.210;2023-05-10T10:08:24;30.70;1.00
2967;DHT22;1493;51.496;7.210;2023-05-10T10:10:51;29.30;1.00
2967;DHT22;1493;51.496;7.210;2023-05-10T10:13:18;27.50;1.00
2967;DHT22;1493;51.496;7.210;2023-05-10T10:15:47;26.60;1.00
2967;DHT22;1493;51.496;7.210;2023-05-10T10:18:16;25.10;1.00
2967;DHT22;1493;51.496;7.210;2023-05-10T10:20:44;24.20;1.00
2967;DHT22;1493;51.496;7.210;2023-05-10T10:23:11;23.30;1.00
2967;DHT22;1493;51.496;7.210;2023-05-10T10:25:38;22.40;1.00
2967;DHT22;1493;51.496;7.210;2023-05-10T10:28:16;22.00;99.90
2967;DHT22;1493;51.496;7.210;2023-05-10T10:30:51;21.70;1.00
2967;DHT22;1493;51.496;7.210;2023-05-10T10:33:40;21.60;99.90
2967;DHT22;1493;51.496;7.210;2023-05-10T10:36:13;21.50;98.50
2967;DHT22;1493;51.496;7.210;2023-05-10T10:38:59;21.60;1.00
2967;DHT22;1493;51.496;7.210;2023-05-10T10:41:31;21.70;99.90
2967;DHT22;1493;51.496;7.210;2023-05-10T10:44:24;21.90;99.90
2967;DHT22;1493;51.496;7.210;2023-05-10T10:47:07;21.90;12.90
2967;DHT22;1493;51.496;7.210;2023-05-10T10:49:45;21.60;99.90
2967;DHT22;1493;51.496;7.210;2023-05-10T10:52:18;21.50;1.00
2967;DHT22;1493;51.496;7.210;2023-05-10T10:54:50;21.20;1.00
2967;DHT22;1493;51.496;7.210;2023-05-10T10:57:18;20.60;99.90
2967;DHT22;1493;51.496;7.210;2023-05-10T10:59:47;20.40;1.00
2967;DHT22;1493;51.496;7.210;2023-05-10T11:02:43;20.30;1.00
2967;DHT22;1493;51.496;7.210;2023-05-10T11:05:24;20.10;99.90
2967;DHT22;1493;51.496;7.210;2023-05-10T11:07:52;20.10;99.90
2967;DHT22;1493;51.496;7.210;2023-05-10T11:10:19;19.80;45.30
2967;DHT22;1493;51.496;7.210;2023-05-10T11:12:53;19.80;99.90
2967;DHT22;1493;51.496;7.210;2023-05-10T11:15:28;19.80;99.90
2967;DHT22;1493;51.496;7.210;2023-05-10T11:17:56;19.60;99.90
2967;DHT22;1493;51.496;7.210;2023-05-10T11:20:23;19.10;99.90
2967;DHT22;1493;51.496;7.210;2023-05-10T11:23:11;19.10;99.90
2967;DHT22;1493;51.496;7.210;2023-05-10T11:25:41;19.20;1.00
2967;DHT22;1493;51.496;7.210;2023-05-10T11:28:09;19.00;1.00
2967;DHT22;1493;51.496;7.210;2023-05-10T11:30:37;19.00;99.90
2967;DHT22;1493;51.496;7.210;2023-05-10T11:33:06;19.50;99.90
2967;DHT22;1493;51.496;7.210;2023-05-10T11:35:37;20.00;99.90
2967;DHT22;1493;51.496;7.210;2023-05-10T11:38:06;20.40;99.90
2967;DHT22;1493;51.496;7.210;2023-05-10T11:40:33;20.70;1.00
2967;DHT22;1493;51.496;7.210;2023-05-10T11:43:00;21.20;1.00
2967;DHT22;1493;51.496;7.210;2023-05-10T11:45:27;21.40;99.90
2967;DHT22;1493;51.496;7.210;2023-05-10T11:47:54;21.80;99.90
2967;DHT22;1493;51.496;7.210;2023-05-10T11:50:23;21.80;99.90
2967;DHT22;1493;51.496;7.210;2023-05-10T11:52:51;21.80;27.70
2967;DHT22;1493;51.496;7.210;2023-05-10T11:55:18;21.50;15.10
2967;DHT22;1493;51.496;7.210;2023-05-10T11:57:45;21.80;46.50
2967;DHT22;1493;51.496;7.210;2023-05-10T12:00:13;21.50;99.90
2967;DHT22;1493;51.496;7.210;2023-05-10T12:02:40;21.00;1.00
2967;DHT22;1493;51.496;7.210;2023-05-10T12:05:08;20.80;99.90
2967;DHT22;1493;51.496;7.210;2023-05-10T12:07:36;21.10;99.90
2967;DHT22;1493;51.496;7.210;2023-05-10T12:10:05;21.00;99.90
2967;DHT22;1493;51.496;7.210;2023-05-10T12:12:39;20.90;99.90
2967;DHT22;1493;51.496;7.210;2023-05-10T12:15:10;20.40;99.90
2967;DHT22;1493;51.496;7.210;2023-05-10T12:17:38;20.50;7.30
2967;DHT22;1493;51.496;7.210;2023-05-10T12:20:19;20.90;99.90
2967;DHT22;1493;51.496;7.210;2023-05-10T12:22:57;21.00;99.90
2967;DHT22;1493;51.496;7.210;2023-05-10T12:25:30;21.20;99.90
2967;DHT22;1493;51.496;7.210;2023-05-10T12:27:59;21.60;59.80
2967;DHT22;1493;51.496;7.210;2023-05-10T12:30:27;21.70;1.00
2967;DHT22;1493;51.496;7.210;2023-05-10T12:32:59;22.40;1.00
2967;DHT22;1493;51.496;7.210;2023-05-10T12:35:29;23.30;1.00
2967;DHT22;1493;51.496;7.210;2023-05-10T12:37:58;24.40;1.00
2967;DHT22;1493;51.496;7.210;2023-05-10T12:40:25;25.10;1.00
2967;DHT22;1493;51.496;7.210;2023-05-10T12:42:51;26.40;1.00
2967;DHT22;1493;51.496;7.210;2023-05-10T12:45:18;27.30;1.00
2967;DHT22;1493;51.496;7.210;2023-05-10T12:47:45;27.80;1.00
2967;DHT22;1493;51.496;7.210;2023-05-10T12:50:12;27.30;1.00
2967;DHT22;1493;51.496;7.210;2023-05-10T12:52:39;27.10;1.00
2967;DHT22;1493;51.496;7.210;2023-05-10T12:55:07;26.80;1.00
2967;DHT22;1493;51.496;7.210;2023-05-10T12:57:34;26.50;1.00
2967;DHT22;1493;51.496;7.210;2023-05-10T13:00:02;26.30;1.00
2967;DHT22;1493;51.496;7.210;2023-05-10T13:02:30;26.10;1.00
2967;DHT22;1493;51.496;7.210;2023-05-10T13:04:57;26.20;1.00
2967;DHT22;1493;51.496;7.210;2023-05-10T13:07:24;25.80;1.00
2967;DHT22;1493;51.496;7.210;2023-05-10T13:09:53;24.50;1.00
2967;DHT22;1493;51.496;7.210;2023-05-10T13:12:24;24.30;1.00
2967;DHT22;1493;51.496;7.210;2023-05-10T13:14:54;24.10;1.00
2967;DHT22;1493;51.496;7.210;2023-05-10T13:17:21;24.30;1.00
2967;DHT22;1493;51.496;7.210;2023-05-10T13:19:48;24.80;1.00
2967;DHT22;1493;51.496;7.210;2023-05-10T13:22:15;25.80;1.00
2967;DHT22;1493;51.496;7.210;2023-05-10T13:24:42;27.00;1.00
2967;DHT22;1493;51.496;7.210;2023-05-10T13:27:09;27.50;1.00
2967;DHT22;1493;51.496;7.210;2023-05-10T13:29:37;28.20;1.00
2967;DHT22;1493;51.496;7.210;2023-05-10T13:32:05;29.20;1.00
2967;DHT22;1493;51.496;7.210;2023-05-10T13:34:32;29.70;1.00
2967;DHT22;1493;51.496;7.210;2023-05-10T13:36:59;30.60;1.00
2967;DHT22;1493;51.496;7.210;2023-05-10T13:39:25;31.90;1.00
2967;DHT22;1493;51.496;7.210;2023-05-10T13:41:52;32.40;1.00
2967;DHT22;1493;51.496;7.210;2023-05-10T13:44:20;31.60;99.90
2967;DHT22;1493;51.496;7.210;2023-05-10T13:46:48;31.10;99.90
2967;DHT22;1493;51.496;7.210;2023-05-10T13:49:15;30.80;99.90
2967;DHT22;1493;51.496;7.210;2023-05-10T13:51:43;31.30;99.90
2967;DHT22;1493;51.496;7.210;2023-05-10T13:54:10;32.10;99.90
2967;DHT22;1493;51.496;7.210;2023-05-10T13:56:37;32.30;99.90
2967;DHT22;1493;51.496;7.210;2023-05-10T13:59:04;31.60;99.90
2967;DHT22;1493;51.496;7.210;2023-05-10T14:01:31;31.40;99.90
2967;DHT22;1493;51.496;7.210;2023-05-10T14:03:59;30.00;99.90
2967;DHT22;1493;51.496;7.210;2023-05-10T14:06:26;29.80;99.90
2967;DHT22;1493;51.496;7.210;2023-05-10T14:08:53;31.30;99.90
2967;DHT22;1493;51.496;7.210;2023-05-10T14:11:21;31.10;99.90
2967;DHT22;1493;51.496;7.210;2023-05-10T14:13:49;31.40;99.90
2967;DHT22;1493;51.496;7.210;2023-05-10T14:16:15;32.30;99.90
2967;DHT22;1493;51.496;7.210;2023-05-10T14:18:43;31.00;99.90
2967;DHT22;1493;51.496;7.210;2023-05-10T14:21:11;30.50;99.90
2967;DHT22;1493;51.496;7.210;2023-05-10T14:23:38;31.10;99.90
2967;DHT22;1493;51.496;7.210;2023-05-10T14:26:05;30.00;99.90
2967;DHT22;1493;51.496;7.210;2023-05-10T14:28:32;30.00;99.90
2967;DHT22;1493;51.496;7.210;2023-05-10T14:30:59;31.40;99.90
2967;DHT22;1493;51.496;7.210;2023-05-10T14:33:26;31.40;99.90
2967;DHT22;1493;51.496;7.210;2023-05-10T14:35:54;31.60;99.90
2967;DHT22;1493;51.496;7.210;2023-05-10T14:38:23;30.80;99.90
2967;DHT22;1493;51.496;7.210;2023-05-10T14:40:50;29.80;99.90
2967;DHT22;1493;51.496;7.210;2023-05-10T14:43:18;29.00;99.90
2967;DHT22;1493;51.496;7.210;2023-05-10T14:45:46;28.90;99.90
2967;DHT22;1493;51.496;7.210;2023-05-10T14:48:13;28.80;99.90
2967;DHT22;1493;51.496;7.210;2023-05-10T14:50:41;28.10;99.90
2967;DHT22;1493;51.496;7.210;2023-05-10T14:53:08;27.20;99.90
2967;DHT22;1493;51.496;7.210;2023-05-10T14:55:40;27.10;99.90
2967;DHT22;1493;51.496;7.210;2023-05-10T14:58:07;27.10;99.90
2967;DHT22;1493;51.496;7.210;2023-05-10T15:00:34;26.60;99.90
2967;DHT22;1493;51.496;7.210;2023-05-10T15:03:04;25.80;99.90
2967;DHT22;1493;51.496;7.210;2023-05-10T15:05:34;25.90;99.90
2967;DHT22;1493;51.496;7.210;2023-05-10T15:08:02;26.70;99.90
2967;DHT22;1493;51.496;7.210;2023-05-10T15:10:30;27.30;99.90
2967;DHT22;1493;51.496;7.210;2023-05-10T15:12:59;27.60;99.90
2967;DHT22;1493;51.496;7.210;2023-05-10T15:15:26;27.60;99.90
2967;DHT22;1493;51.496;7.210;2023-05-10T15:17:53;27.60;99.90
2967;DHT22;1493;51.496;7.210;2023-05-10T15:20:20;28.80;99.90
2967;DHT22;1493;51.496;7.210;2023-05-10T15:22:51;29.40;99.90
2967;DHT22;1493;51.496;7.210;2023-05-10T15:25:18;30.20;99.90
2967;DHT22;1493;51.496;7.210;2023-05-10T15:27:45;30.90;99.90
2967;DHT22;1493;51.496;7.210;2023-05-10T15:30:14;30.90;99.90
2967;DHT22;1493;51.496;7.210;2023-05-10T15:32:41;30.80;99.90
2967;DHT22;1493;51.496;7.210;2023-05-10T15:35:10;29.90;99.90
2967;DHT22;1493;51.496;7.210;2023-05-10T15:37:37;28.40;99.90
2967;DHT22;1493;51.496;7.210;2023-05-10T15:40:05;27.80;99.90
2967;DHT22;1493;51.496;7.210;2023-05-10T15:42:33;28.80;99.90
2967;DHT22;1493;51.496;7.210;2023-05-10T15:45:00;29.50;99.90
2967;DHT22;1493;51.496;7.210;2023-05-10T15:47:30;30.00;99.90
2967;DHT22;1493;51.496;7.210;2023-05-10T15:49:57;29.70;99.90
2967;DHT22;1493;51.496;7.210;2023-05-10T15:52:24;28.50;99.90
2967;DHT22;1493;51.496;7.210;2023-05-10T15:54:51;27.50;99.90
2967;DHT22;1493;51.496;7.210;2023-05-10T15:57:18;26.40;99.90
2967;DHT22;1493;51.496;7.210;2023-05-10T15:59:45;25.50;99.90
2967;DHT22;1493;51.496;7.210;2023-05-10T16:02:12;24.50;99.90
2967;DHT22;1493;51.496;7.210;2023-05-10T16:04:41;23.70;99.90
2967;DHT22;1493;51.496;7.210;2023-05-10T16:07:09;23.10;99.90
2967;DHT22;1493;51.496;7.210;2023-05-10T16:09:36;22.70;99.90
2967;DHT22;1493;51.496;7.210;2023-05-10T16:12:03;22.40;99.90
2967;DHT22;1493;51.496;7.210;2023-05-10T16:14:30;22.00;99.90
2967;DHT22;1493;51.496;7.210;2023-05-10T16:16:57;21.70;99.90